Decoded Metar for SLSA (SANTA ANA in BOLIVIA) (IATA:N/A) | Meteo·Mobile Aviation Weather
aviador You're here:

SLSA Decoded Metar

SANTA ANA in BOLIVIA
Report Time2018-12-14 17:00:00
UTC Time2018-12-14 17:51:48
Flight Rules mvfr MVFR
Wind340° at 14 kt
W.Decomp.*RWY 32: 12.4 kt HW 6.6 kt RCW
W.Rank340° ranks 2
Current wind is above 340° avg. (8.0)
Visibility9999 m
Phenomena:N/A
Clouds:Broken 017 Hf
Expected CloudBase > 3,200 ft AGL from Temp-Dew spread
Ceiling1,700 ft
Temp32°C (ISA +18)
Dew Point24°C (63% RH)
Heat Index38.0°C
QNH1010 hPa
Density Alt3,012 ft
Elevation472 ft
Report Wrong Elevation
Raw Report
METAR SLSA 141700Z 34014KT 9999 BKN017 32/24 Q1010=

Extra information for SLSA:More info

Metar Taf Metar & Taf Last 4 Metars F.Rules Stats Wind Profile Meteogram Temp Stats Airport Information Weather charts Add Link Nearby VenuesMetar ALERT Operation Metar Decoded Social comments